sensor_id;sensor_type;location;lat;lon;timestamp;pressure;altitude;pressure_sealevel;temperature;humidity
34103;BME280;20381;54.498;18.206;2023-03-22T00:01:12;99236.20;;;7.81;74.22
34103;BME280;20381;54.498;18.206;2023-03-22T00:03:38;99236.28;;;7.79;74.84
34103;BME280;20381;54.498;18.206;2023-03-22T00:06:06;99230.30;;;7.77;74.36
34103;BME280;20381;54.498;18.206;2023-03-22T00:08:33;99227.56;;;7.80;74.57
34103;BME280;20381;54.498;18.206;2023-03-22T00:10:59;99228.02;;;7.80;74.85
34103;BME280;20381;54.498;18.206;2023-03-22T00:13:26;99223.66;;;7.80;74.04
34103;BME280;20381;54.498;18.206;2023-03-22T00:15:54;99223.14;;;7.82;74.53
34103;BME280;20381;54.498;18.206;2023-03-22T00:18:20;99219.77;;;7.80;74.68
34103;BME280;20381;54.498;18.206;2023-03-22T00:20:52;99217.95;;;7.82;74.97
34103;BME280;20381;54.498;18.206;2023-03-22T00:23:19;99215.34;;;7.82;74.44
34103;BME280;20381;54.498;18.206;2023-03-22T00:25:46;99215.72;;;7.83;75.00
34103;BME280;20381;54.498;18.206;2023-03-22T00:28:13;99214.42;;;7.83;74.71
34103;BME280;20381;54.498;18.206;2023-03-22T00:30:42;99210.94;;;7.84;74.98
34103;BME280;20381;54.498;18.206;2023-03-22T00:33:09;99211.45;;;7.82;74.73
34103;BME280;20381;54.498;18.206;2023-03-22T00:35:35;99209.77;;;7.81;76.03
34103;BME280;20381;54.498;18.206;2023-03-22T00:38:01;99208.47;;;7.81;75.32
34103;BME280;20381;54.498;18.206;2023-03-22T00:40:29;99198.08;;;7.81;75.38
34103;BME280;20381;54.498;18.206;2023-03-22T00:42:56;99196.38;;;7.80;75.31
34103;BME280;20381;54.498;18.206;2023-03-22T00:45:23;99195.34;;;7.84;75.02
34103;BME280;20381;54.498;18.206;2023-03-22T00:47:49;99186.24;;;7.84;75.20
34103;BME280;20381;54.498;18.206;2023-03-22T00:50:16;99186.30;;;7.83;75.95
34103;BME280;20381;54.498;18.206;2023-03-22T00:52:42;99182.48;;;7.81;76.31
34103;BME280;20381;54.498;18.206;2023-03-22T00:55:08;99178.96;;;7.82;75.68
34103;BME280;20381;54.498;18.206;2023-03-22T00:57:35;99174.69;;;7.81;75.94
34103;BME280;20381;54.498;18.206;2023-03-22T01:00:03;99163.50;;;7.79;76.22
34103;BME280;20381;54.498;18.206;2023-03-22T01:02:35;99161.80;;;7.78;76.33
34103;BME280;20381;54.498;18.206;2023-03-22T01:05:02;99153.63;;;7.77;76.70
34103;BME280;20381;54.498;18.206;2023-03-22T01:07:29;99154.09;;;7.77;77.16
34103;BME280;20381;54.498;18.206;2023-03-22T01:09:56;99157.91;;;7.78;76.45
34103;BME280;20381;54.498;18.206;2023-03-22T01:12:22;99156.60;;;7.78;76.83
34103;BME280;20381;54.498;18.206;2023-03-22T01:14:52;99155.70;;;7.79;76.63
34103;BME280;20381;54.498;18.206;2023-03-22T01:17:16;99154.78;;;7.80;76.64
34103;BME280;20381;54.498;18.206;2023-03-22T01:19:42;99152.05;;;7.83;76.68
34103;BME280;20381;54.498;18.206;2023-03-22T01:22:09;99150.23;;;7.85;76.55
34103;BME280;20381;54.498;18.206;2023-03-22T01:24:35;99146.70;;;7.87;77.03
34103;BME280;20381;54.498;18.206;2023-03-22T01:27:01;99145.81;;;7.88;76.86
34103;BME280;20381;54.498;18.206;2023-03-22T01:29:28;99141.36;;;7.90;76.94
34103;BME280;20381;54.498;18.206;2023-03-22T01:31:56;99143.86;;;7.93;76.86
34103;BME280;20381;54.498;18.206;2023-03-22T01:34:22;99134.20;;;7.95;76.43
34103;BME280;20381;54.498;18.206;2023-03-22T01:36:49;99127.97;;;7.99;76.34
34103;BME280;20381;54.498;18.206;2023-03-22T01:39:17;99134.84;;;8.00;76.71
34103;BME280;20381;54.498;18.206;2023-03-22T01:41:43;99133.55;;;8.00;76.84
34103;BME280;20381;54.498;18.206;2023-03-22T01:46:44;99130.28;;;8.05;77.15
34103;BME280;20381;54.498;18.206;2023-03-22T01:49:15;99128.05;;;8.06;76.56
34103;BME280;20381;54.498;18.206;2023-03-22T01:51:43;99119.73;;;8.08;76.91
34103;BME280;20381;54.498;18.206;2023-03-22T01:54:15;99114.02;;;8.10;76.95
34103;BME280;20381;54.498;18.206;2023-03-22T01:56:41;99115.17;;;8.13;76.77
34103;BME280;20381;54.498;18.206;2023-03-22T01:59:10;99113.46;;;8.12;77.49
34103;BME280;20381;54.498;18.206;2023-03-22T02:01:38;99107.37;;;8.13;77.32
34103;BME280;20381;54.498;18.206;2023-03-22T02:04:09;99100.46;;;8.12;77.44
34103;BME280;20381;54.498;18.206;2023-03-22T02:06:37;99100.41;;;8.14;77.02
34103;BME280;20381;54.498;18.206;2023-03-22T02:09:09;99099.41;;;8.16;77.55
34103;BME280;20381;54.498;18.206;2023-03-22T02:11:42;99098.95;;;8.17;77.26
34103;BME280;20381;54.498;18.206;2023-03-22T02:14:35;99094.22;;;8.16;77.00
34103;BME280;20381;54.498;18.206;2023-03-22T02:17:25;99094.22;;;8.16;77.64
34103;BME280;20381;54.498;18.206;2023-03-22T02:26:04;99090.06;;;8.12;77.29
34103;BME280;20381;54.498;18.206;2023-03-22T02:28:39;99093.63;;;8.01;78.42
34103;BME280;20381;54.498;18.206;2023-03-22T02:39:23;99089.44;;;7.79;79.59
34103;BME280;20381;54.498;18.206;2023-03-22T02:47:06;99074.58;;;7.54;80.43
34103;BME280;20381;54.498;18.206;2023-03-22T02:49:53;99067.50;;;7.47;81.63
34103;BME280;20381;54.498;18.206;2023-03-22T02:52:41;99064.34;;;7.40;82.07
34103;BME280;20381;54.498;18.206;2023-03-22T02:55:30;99076.31;;;7.34;81.00
34103;BME280;20381;54.498;18.206;2023-03-22T03:00:15;99071.27;;;7.21;83.06
34103;BME280;20381;54.498;18.206;2023-03-22T03:02:48;99070.10;;;7.18;82.56
34103;BME280;20381;54.498;18.206;2023-03-22T03:05:17;99067.51;;;7.18;82.59
34103;BME280;20381;54.498;18.206;2023-03-22T03:07:51;99058.05;;;7.17;84.71
34103;BME280;20381;54.498;18.206;2023-03-22T03:10:16;99053.74;;;7.16;85.99
34103;BME280;20381;54.498;18.206;2023-03-22T03:12:45;99052.95;;;7.14;83.85
34103;BME280;20381;54.498;18.206;2023-03-22T03:15:14;99058.70;;;7.12;85.16
34103;BME280;20381;54.498;18.206;2023-03-22T03:26:06;99052.48;;;7.06;86.26
34103;BME280;20381;54.498;18.206;2023-03-22T03:28:48;99046.50;;;7.04;85.91
34103;BME280;20381;54.498;18.206;2023-03-22T03:31:23;99045.80;;;7.00;86.92
34103;BME280;20381;54.498;18.206;2023-03-22T03:36:35;99052.86;;;6.97;85.33
34103;BME280;20381;54.498;18.206;2023-03-22T03:39:06;99061.42;;;6.99;86.15
34103;BME280;20381;54.498;18.206;2023-03-22T03:41:34;99055.86;;;6.98;87.29
34103;BME280;20381;54.498;18.206;2023-03-22T03:44:02;99056.28;;;6.97;85.65
34103;BME280;20381;54.498;18.206;2023-03-22T03:46:29;99067.86;;;7.00;85.38
34103;BME280;20381;54.498;18.206;2023-03-22T03:48:57;99063.10;;;7.00;86.01
34103;BME280;20381;54.498;18.206;2023-03-22T03:51:25;99060.91;;;7.01;85.78
34103;BME280;20381;54.498;18.206;2023-03-22T03:53:52;99062.13;;;7.02;85.95
34103;BME280;20381;54.498;18.206;2023-03-22T03:56:18;99059.86;;;7.05;86.18
34103;BME280;20381;54.498;18.206;2023-03-22T03:58:44;99052.48;;;7.06;85.49
34103;BME280;20381;54.498;18.206;2023-03-22T04:01:11;99049.34;;;7.08;85.32
34103;BME280;20381;54.498;18.206;2023-03-22T04:03:37;99054.02;;;7.10;85.75
34103;BME280;20381;54.498;18.206;2023-03-22T04:06:03;99046.69;;;7.09;86.44
34103;BME280;20381;54.498;18.206;2023-03-22T04:08:29;99046.23;;;7.10;86.34
34103;BME280;20381;54.498;18.206;2023-03-22T04:10:55;99045.85;;;7.09;87.62
34103;BME280;20381;54.498;18.206;2023-03-22T04:13:22;99042.47;;;7.07;88.32
34103;BME280;20381;54.498;18.206;2023-03-22T04:15:53;99043.77;;;7.07;86.93
34103;BME280;20381;54.498;18.206;2023-03-22T04:18:22;99039.88;;;7.07;87.28
34103;BME280;20381;54.498;18.206;2023-03-22T04:20:49;99038.58;;;7.07;87.31
34103;BME280;20381;54.498;18.206;2023-03-22T04:23:17;99035.06;;;7.08;87.05
34103;BME280;20381;54.498;18.206;2023-03-22T04:25:45;99036.81;;;7.07;87.04
34103;BME280;20381;54.498;18.206;2023-03-22T04:28:13;99032.87;;;7.09;86.83
34103;BME280;20381;54.498;18.206;2023-03-22T04:30:40;99032.87;;;7.09;88.17
34103;BME280;20381;54.498;18.206;2023-03-22T04:33:08;99027.27;;;7.08;88.17
34103;BME280;20381;54.498;18.206;2023-03-22T04:35:36;99016.14;;;7.06;89.74
34103;BME280;20381;54.498;18.206;2023-03-22T04:38:02;99017.03;;;7.05;89.38
34103;BME280;20381;54.498;18.206;2023-03-22T04:40:29;99012.76;;;7.04;91.57
34103;BME280;20381;54.498;18.206;2023-03-22T04:42:57;98992.88;;;7.03;90.25
34103;BME280;20381;54.498;18.206;2023-03-22T04:45:24;98994.32;;;7.00;92.69
34103;BME280;20381;54.498;18.206;2023-03-22T04:47:52;98998.21;;;7.00;91.52
34103;BME280;20381;54.498;18.206;2023-03-22T04:50:18;98997.33;;;7.01;91.21
34103;BME280;20381;54.498;18.206;2023-03-22T04:52:45;98988.75;;;6.99;92.53
34103;BME280;20381;54.498;18.206;2023-03-22T04:55:13;98990.05;;;6.99;91.42
34103;BME280;20381;54.498;18.206;2023-03-22T04:57:39;98986.16;;;6.99;91.14
34103;BME280;20381;54.498;18.206;2023-03-22T05:00:08;98983.19;;;6.98;91.48
34103;BME280;20381;54.498;18.206;2023-03-22T05:02:34;98987.83;;;7.00;91.63
34103;BME280;20381;54.498;18.206;2023-03-22T05:05:04;98996.48;;;7.00;91.56
34103;BME280;20381;54.498;18.206;2023-03-22T05:07:30;98996.78;;;7.03;91.48
34103;BME280;20381;54.498;18.206;2023-03-22T05:09:57;98991.85;;;7.07;90.67
34103;BME280;20381;54.498;18.206;2023-03-22T05:12:23;98993.39;;;7.11;90.88
34103;BME280;20381;54.498;18.206;2023-03-22T05:14:49;98996.63;;;7.16;91.09
34103;BME280;20381;54.498;18.206;2023-03-22T05:17:15;99003.44;;;7.18;90.79
34103;BME280;20381;54.498;18.206;2023-03-22T05:19:42;98998.19;;;7.20;90.87
34103;BME280;20381;54.498;18.206;2023-03-22T05:22:08;98993.05;;;7.18;91.43
34103;BME280;20381;54.498;18.206;2023-03-22T05:24:36;98987.80;;;7.20;91.26
34103;BME280;20381;54.498;18.206;2023-03-22T05:27:02;98990.26;;;7.23;91.70
34103;BME280;20381;54.498;18.206;2023-03-22T05:29:29;98997.13;;;7.24;92.09
34103;BME280;20381;54.498;18.206;2023-03-22T05:31:57;98998.05;;;7.23;92.49
34103;BME280;20381;54.498;18.206;2023-03-22T05:34:23;99003.62;;;7.24;92.27
34103;BME280;20381;54.498;18.206;2023-03-22T05:36:49;98996.09;;;7.28;91.97
34103;BME280;20381;54.498;18.206;2023-03-22T05:39:16;98995.95;;;7.31;91.73
34103;BME280;20381;54.498;18.206;2023-03-22T05:41:42;99001.38;;;7.35;91.87
34103;BME280;20381;54.498;18.206;2023-03-22T05:44:09;98993.21;;;7.34;91.89
34103;BME280;20381;54.498;18.206;2023-03-22T05:46:35;99001.00;;;7.34;92.28
34103;BME280;20381;54.498;18.206;2023-03-22T05:49:01;98992.28;;;7.35;91.87
34103;BME280;20381;54.498;18.206;2023-03-22T05:51:27;98990.16;;;7.35;92.50
34103;BME280;20381;54.498;18.206;2023-03-22T05:53:55;98998.26;;;7.37;91.48
34103;BME280;20381;54.498;18.206;2023-03-22T05:56:21;98995.98;;;7.40;92.12
34103;BME280;20381;54.498;18.206;2023-03-22T05:58:48;99008.51;;;7.40;91.97
34103;BME280;20381;54.498;18.206;2023-03-22T06:01:15;99000.57;;;7.44;91.90
34103;BME280;20381;54.498;18.206;2023-03-22T06:03:42;99016.02;;;7.47;91.70
34103;BME280;20381;54.498;18.206;2023-03-22T06:06:09;99008.22;;;7.47;92.04
34103;BME280;20381;54.498;18.206;2023-03-22T06:08:37;99007.19;;;7.51;91.43
34103;BME280;20381;54.498;18.206;2023-03-22T06:11:06;99002.73;;;7.53;93.08
34103;BME280;20381;54.498;18.206;2023-03-22T06:13:33;98999.16;;;7.55;92.63
34103;BME280;20381;54.498;18.206;2023-03-22T06:16:01;99001.70;;;7.57;91.93
34103;BME280;20381;54.498;18.206;2023-03-22T06:18:31;99011.02;;;7.61;91.96
34103;BME280;20381;54.498;18.206;2023-03-22T06:20:58;99012.58;;;7.65;91.87
34103;BME280;20381;54.498;18.206;2023-03-22T06:23:24;98996.06;;;7.66;92.46
34103;BME280;20381;54.498;18.206;2023-03-22T06:25:51;99006.02;;;7.75;92.37
34103;BME280;20381;54.498;18.206;2023-03-22T06:28:17;99001.16;;;7.87;92.40
34103;BME280;20381;54.498;18.206;2023-03-22T06:30:44;99000.42;;;7.93;92.37
34103;BME280;20381;54.498;18.206;2023-03-22T06:33:10;99006.68;;;7.98;92.67
34103;BME280;20381;54.498;18.206;2023-03-22T06:35:37;99000.49;;;8.00;91.99
34103;BME280;20381;54.498;18.206;2023-03-22T06:38:03;99010.68;;;8.05;92.10
34103;BME280;20381;54.498;18.206;2023-03-22T06:40:31;98995.87;;;8.24;92.44
34103;BME280;20381;54.498;18.206;2023-03-22T06:42:57;99000.79;;;8.48;92.44
34103;BME280;20381;54.498;18.206;2023-03-22T06:45:24;98997.88;;;8.71;92.69
34103;BME280;20381;54.498;18.206;2023-03-22T06:47:50;98988.48;;;9.02;92.88
34103;BME280;20381;54.498;18.206;2023-03-22T06:50:17;98992.87;;;9.17;92.20
34103;BME280;20381;54.498;18.206;2023-03-22T06:52:43;99004.70;;;9.32;92.02
34103;BME280;20381;54.498;18.206;2023-03-22T06:55:10;98998.36;;;9.60;92.62
34103;BME280;20381;54.498;18.206;2023-03-22T06:57:36;98996.84;;;9.88;92.39
34103;BME280;20381;54.498;18.206;2023-03-22T07:00:03;99002.75;;;9.92;91.41
34103;BME280;20381;54.498;18.206;2023-03-22T07:02:30;98998.73;;;9.93;91.62
34103;BME280;20381;54.498;18.206;2023-03-22T07:04:56;99002.12;;;10.02;91.62
34103;BME280;20381;54.498;18.206;2023-03-22T07:07:23;99003.83;;;10.11;91.51
34103;BME280;20381;54.498;18.206;2023-03-22T07:09:49;99001.05;;;10.14;91.39
34103;BME280;20381;54.498;18.206;2023-03-22T07:12:16;98998.66;;;10.18;91.49
34103;BME280;20381;54.498;18.206;2023-03-22T07:14:43;98984.75;;;10.33;91.23
34103;BME280;20381;54.498;18.206;2023-03-22T07:17:09;98987.75;;;10.34;91.36
34103;BME280;20381;54.498;18.206;2023-03-22T07:19:37;98987.45;;;10.62;91.83
34103;BME280;20381;54.498;18.206;2023-03-22T07:22:04;98991.37;;;10.83;91.49
34103;BME280;20381;54.498;18.206;2023-03-22T07:24:30;98979.22;;;11.39;92.43
34103;BME280;20381;54.498;18.206;2023-03-22T07:26:56;98976.92;;;11.76;91.32
34103;BME280;20381;54.498;18.206;2023-03-22T07:29:22;98967.75;;;12.43;92.84
34103;BME280;20381;54.498;18.206;2023-03-22T07:31:49;98961.64;;;13.27;92.73
34103;BME280;20381;54.498;18.206;2023-03-22T07:34:15;98958.98;;;14.00;91.81
34103;BME280;20381;54.498;18.206;2023-03-22T07:36:50;98949.41;;;14.70;92.08
34103;BME280;20381;54.498;18.206;2023-03-22T07:39:17;98951.57;;;15.43;91.72
34103;BME280;20381;54.498;18.206;2023-03-22T07:41:44;98946.28;;;16.30;91.19
34103;BME280;20381;54.498;18.206;2023-03-22T07:44:10;98946.31;;;17.03;88.36
34103;BME280;20381;54.498;18.206;2023-03-22T07:46:37;98950.30;;;17.53;90.42
34103;BME280;20381;54.498;18.206;2023-03-22T07:49:03;98939.96;;;17.65;87.40
34103;BME280;20381;54.498;18.206;2023-03-22T07:51:29;98942.48;;;17.77;89.28
34103;BME280;20381;54.498;18.206;2023-03-22T07:53:56;98943.09;;;17.90;83.98
34103;BME280;20381;54.498;18.206;2023-03-22T07:56:22;98937.59;;;17.62;83.08
34103;BME280;20381;54.498;18.206;2023-03-22T07:58:49;98941.61;;;17.92;82.25
34103;BME280;20381;54.498;18.206;2023-03-22T08:01:15;98934.89;;;18.13;85.53
34103;BME280;20381;54.498;18.206;2023-03-22T08:03:42;98941.35;;;18.90;83.23
34103;BME280;20381;54.498;18.206;2023-03-22T08:06:09;98943.21;;;19.31;83.05
34103;BME280;20381;54.498;18.206;2023-03-22T08:08:37;98934.94;;;19.16;82.98
34103;BME280;20381;54.498;18.206;2023-03-22T08:11:04;98943.34;;;18.78;79.49
34103;BME280;20381;54.498;18.206;2023-03-22T08:13:31;98948.14;;;18.36;81.28
34103;BME280;20381;54.498;18.206;2023-03-22T08:15:58;98946.91;;;18.64;82.23
34103;BME280;20381;54.498;18.206;2023-03-22T08:18:24;98942.81;;;19.26;83.12
34103;BME280;20381;54.498;18.206;2023-03-22T08:20:56;98940.06;;;19.45;83.11
34103;BME280;20381;54.498;18.206;2023-03-22T08:23:26;98945.72;;;19.47;80.11
34103;BME280;20381;54.498;18.206;2023-03-22T08:25:53;98937.02;;;19.13;81.51
34103;BME280;20381;54.498;18.206;2023-03-22T08:28:19;98944.41;;;18.95;76.53
34103;BME280;20381;54.498;18.206;2023-03-22T08:30:47;98941.60;;;18.83;75.71
34103;BME280;20381;54.498;18.206;2023-03-22T08:33:13;98939.38;;;19.71;82.53
34103;BME280;20381;54.498;18.206;2023-03-22T08:35:41;98941.08;;;20.52;79.35
34103;BME280;20381;54.498;18.206;2023-03-22T08:38:09;98934.20;;;20.85;80.09
34103;BME280;20381;54.498;18.206;2023-03-22T08:40:36;98922.81;;;22.02;81.23
34103;BME280;20381;54.498;18.206;2023-03-22T08:43:02;98925.78;;;22.73;79.47
34103;BME280;20381;54.498;18.206;2023-03-22T08:45:29;98925.63;;;23.26;78.46
34103;BME280;20381;54.498;18.206;2023-03-22T08:47:56;98924.89;;;23.44;76.23
34103;BME280;20381;54.498;18.206;2023-03-22T08:50:28;98927.55;;;22.93;72.70
34103;BME280;20381;54.498;18.206;2023-03-22T08:52:54;98929.14;;;22.50;75.42
34103;BME280;20381;54.498;18.206;2023-03-22T08:55:21;98915.64;;;22.60;75.05
34103;BME280;20381;54.498;18.206;2023-03-22T08:57:47;98918.44;;;22.79;76.36
34103;BME280;20381;54.498;18.206;2023-03-22T09:00:16;98907.49;;;22.70;67.75
34103;BME280;20381;54.498;18.206;2023-03-22T09:02:43;98905.55;;;22.31;71.45
34103;BME280;20381;54.498;18.206;2023-03-22T09:05:09;98902.21;;;23.13;75.85
34103;BME280;20381;54.498;18.206;2023-03-22T09:07:36;98906.79;;;23.63;74.17
34103;BME280;20381;54.498;18.206;2023-03-22T09:10:03;98898.52;;;22.63;73.56
34103;BME280;20381;54.498;18.206;2023-03-22T09:12:30;98904.61;;;21.40;69.47
34103;BME280;20381;54.498;18.206;2023-03-22T09:14:56;98902.91;;;20.67;70.59
34103;BME280;20381;54.498;18.206;2023-03-22T09:17:27;98911.29;;;19.92;70.44
34103;BME280;20381;54.498;18.206;2023-03-22T09:19:52;98906.64;;;19.44;71.73
34103;BME280;20381;54.498;18.206;2023-03-22T09:22:18;98907.02;;;18.81;69.70
34103;BME280;20381;54.498;18.206;2023-03-22T09:24:45;98909.73;;;17.99;71.25
34103;BME280;20381;54.498;18.206;2023-03-22T09:27:11;98919.91;;;17.34;70.54
34103;BME280;20381;54.498;18.206;2023-03-22T09:29:38;98911.77;;;17.06;71.18
34103;BME280;20381;54.498;18.206;2023-03-22T09:32:05;98909.39;;;17.03;71.30
34103;BME280;20381;54.498;18.206;2023-03-22T09:34:31;98909.70;;;17.19;71.01
34103;BME280;20381;54.498;18.206;2023-03-22T09:36:57;98903.05;;;18.81;71.06
34103;BME280;20381;54.498;18.206;2023-03-22T09:39:26;98902.38;;;18.69;67.53
34103;BME280;20381;54.498;18.206;2023-03-22T09:42:01;98899.84;;;18.10;68.03
34103;BME280;20381;54.498;18.206;2023-03-22T09:47:00;98898.95;;;17.96;69.61
34103;BME280;20381;54.498;18.206;2023-03-22T09:49:35;98903.70;;;18.26;69.11
34103;BME280;20381;54.498;18.206;2023-03-22T09:52:11;98891.17;;;18.94;70.21
34103;BME280;20381;54.498;18.206;2023-03-22T09:54:40;98895.64;;;19.08;65.62
34103;BME280;20381;54.498;18.206;2023-03-22T09:57:36;98885.81;;;18.67;64.97
34103;BME280;20381;54.498;18.206;2023-03-22T10:00:34;98884.53;;;18.24;67.02
34103;BME280;20381;54.498;18.206;2023-03-22T10:03:02;98886.57;;;18.96;65.70
34103;BME280;20381;54.498;18.206;2023-03-22T10:08:12;98883.89;;;19.38;67.91
34103;BME280;20381;54.498;18.206;2023-03-22T10:10:35;98884.42;;;19.55;67.42
34103;BME280;20381;54.498;18.206;2023-03-22T10:15:36;98893.66;;;20.05;67.08
34103;BME280;20381;54.498;18.206;2023-03-22T10:18:05;98888.27;;;20.89;68.36
34103;BME280;20381;54.498;18.206;2023-03-22T10:23:38;98883.26;;;24.35;61.69
34103;BME280;20381;54.498;18.206;2023-03-22T10:26:06;98875.95;;;25.27;66.03
34103;BME280;20381;54.498;18.206;2023-03-22T10:31:04;98868.48;;;26.86;65.26
34103;BME280;20381;54.498;18.206;2023-03-22T10:33:39;98868.41;;;26.83;65.07
34103;BME280;20381;54.498;18.206;2023-03-22T10:36:11;98869.84;;;26.51;65.22
34103;BME280;20381;54.498;18.206;2023-03-22T10:38:43;98859.06;;;27.44;62.03
34103;BME280;20381;54.498;18.206;2023-03-22T10:41:09;98853.88;;;27.74;61.23
34103;BME280;20381;54.498;18.206;2023-03-22T10:43:38;98846.19;;;27.81;58.73
34103;BME280;20381;54.498;18.206;2023-03-22T10:46:10;98843.98;;;26.08;50.40
34103;BME280;20381;54.498;18.206;2023-03-22T10:48:38;98838.84;;;26.87;54.50
34103;BME280;20381;54.498;18.206;2023-03-22T10:51:06;98837.71;;;28.24;54.62
34103;BME280;20381;54.498;18.206;2023-03-22T10:53:40;98826.52;;;28.90;45.03
34103;BME280;20381;54.498;18.206;2023-03-22T10:56:17;98824.08;;;29.33;55.49
34103;BME280;20381;54.498;18.206;2023-03-22T10:58:45;98833.38;;;30.35;52.15
34103;BME280;20381;54.498;18.206;2023-03-22T11:01:14;98828.58;;;31.20;45.34
34103;BME280;20381;54.498;18.206;2023-03-22T11:03:50;98828.21;;;31.98;50.16
34103;BME280;20381;54.498;18.206;2023-03-22T11:06:18;98831.98;;;32.20;49.41
34103;BME280;20381;54.498;18.206;2023-03-22T11:08:50;98828.91;;;32.75;41.79
34103;BME280;20381;54.498;18.206;2023-03-22T11:11:29;98841.34;;;33.00;49.64
34103;BME280;20381;54.498;18.206;2023-03-22T11:16:54;98849.28;;;34.82;46.78
34103;BME280;20381;54.498;18.206;2023-03-22T11:19:23;98847.80;;;33.54;44.91
34103;BME280;20381;54.498;18.206;2023-03-22T11:21:54;98839.12;;;30.82;41.29
34103;BME280;20381;54.498;18.206;2023-03-22T11:24:30;98848.45;;;28.24;41.62
34103;BME280;20381;54.498;18.206;2023-03-22T11:27:05;98856.60;;;26.32;42.84
34103;BME280;20381;54.498;18.206;2023-03-22T11:29:44;98851.84;;;24.61;41.53
34103;BME280;20381;54.498;18.206;2023-03-22T11:32:28;98843.70;;;23.86;42.07
34103;BME280;20381;54.498;18.206;2023-03-22T11:35:25;98847.16;;;23.10;43.30
34103;BME280;20381;54.498;18.206;2023-03-22T11:37:53;98851.34;;;22.40;42.81
34103;BME280;20381;54.498;18.206;2023-03-22T11:42:56;98833.74;;;22.39;42.72
34103;BME280;20381;54.498;18.206;2023-03-22T11:45:29;98829.00;;;22.66;42.49
34103;BME280;20381;54.498;18.206;2023-03-22T11:48:07;98817.42;;;22.50;41.06
34103;BME280;20381;54.498;18.206;2023-03-22T11:50:36;98831.95;;;21.66;42.92
34103;BME280;20381;54.498;18.206;2023-03-22T11:53:05;98829.45;;;21.73;43.81
34103;BME280;20381;54.498;18.206;2023-03-22T11:55:42;98829.45;;;21.60;43.92
34103;BME280;20381;54.498;18.206;2023-03-22T11:58:05;98824.23;;;20.75;42.78
34103;BME280;20381;54.498;18.206;2023-03-22T12:00:36;98816.92;;;19.73;43.96
34103;BME280;20381;54.498;18.206;2023-03-22T12:03:09;98818.16;;;19.01;44.05
34103;BME280;20381;54.498;18.206;2023-03-22T12:05:39;98820.59;;;18.34;44.66
34103;BME280;20381;54.498;18.206;2023-03-22T12:08:20;98813.86;;;18.02;45.07
34103;BME280;20381;54.498;18.206;2023-03-22T12:10:56;98804.36;;;18.29;46.62
34103;BME280;20381;54.498;18.206;2023-03-22T12:13:26;98796.24;;;18.91;46.04
34103;BME280;20381;54.498;18.206;2023-03-22T12:15:58;98797.55;;;19.05;45.84
34103;BME280;20381;54.498;18.206;2023-03-22T12:18:35;98793.89;;;19.20;45.37
34103;BME280;20381;54.498;18.206;2023-03-22T12:21:01;98794.20;;;18.85;45.82
34103;BME280;20381;54.498;18.206;2023-03-22T12:23:30;98794.42;;;18.78;46.29
34103;BME280;20381;54.498;18.206;2023-03-22T12:26:19;98790.26;;;18.89;46.47
34103;BME280;20381;54.498;18.206;2023-03-22T12:29:02;98799.05;;;18.52;46.49
34103;BME280;20381;54.498;18.206;2023-03-22T12:31:41;98799.78;;;17.88;46.78
34103;BME280;20381;54.498;18.206;2023-03-22T12:34:08;98796.37;;;17.62;47.82
34103;BME280;20381;54.498;18.206;2023-03-22T12:36:40;98796.97;;;17.21;47.91
34103;BME280;20381;54.498;18.206;2023-03-22T12:39:06;98783.52;;;16.74;48.56
34103;BME280;20381;54.498;18.206;2023-03-22T12:41:39;98794.08;;;16.90;48.30
34103;BME280;20381;54.498;18.206;2023-03-22T12:44:28;98796.82;;;17.04;48.92
34103;BME280;20381;54.498;18.206;2023-03-22T12:47:04;98790.87;;;17.31;49.28
34103;BME280;20381;54.498;18.206;2023-03-22T12:49:50;98793.63;;;17.00;49.37
34103;BME280;20381;54.498;18.206;2023-03-22T12:52:32;98793.66;;;16.54;49.38
34103;BME280;20381;54.498;18.206;2023-03-22T12:55:00;98787.87;;;16.14;49.29
34103;BME280;20381;54.498;18.206;2023-03-22T12:57:28;98793.14;;;15.93;49.75
34103;BME280;20381;54.498;18.206;2023-03-22T12:59:57;98785.25;;;15.72;49.94
34103;BME280;20381;54.498;18.206;2023-03-22T13:02:30;98785.91;;;15.53;50.24
34103;BME280;20381;54.498;18.206;2023-03-22T13:05:00;98778.94;;;15.31;50.41
34103;BME280;20381;54.498;18.206;2023-03-22T13:07:38;98781.31;;;15.02;50.68
34103;BME280;20381;54.498;18.206;2023-03-22T13:21:20;98777.70;;;14.60;52.20
34103;BME280;20381;54.498;18.206;2023-03-22T13:26:49;98779.70;;;14.56;54.36
34103;BME280;20381;54.498;18.206;2023-03-22T13:37:09;98767.84;;;14.84;54.10
34103;BME280;20381;54.498;18.206;2023-03-22T13:39:37;98762.12;;;14.90;53.41
34103;BME280;20381;54.498;18.206;2023-03-22T13:42:23;98772.01;;;14.92;53.61
34103;BME280;20381;54.498;18.206;2023-03-22T13:44:58;98763.66;;;14.98;54.44
34103;BME280;20381;54.498;18.206;2023-03-22T13:50:16;98763.81;;;15.12;53.76
34103;BME280;20381;54.498;18.206;2023-03-22T13:52:58;98754.31;;;15.00;53.61
34103;BME280;20381;54.498;18.206;2023-03-22T13:56:25;98760.90;;;14.94;54.08
34103;BME280;20381;54.498;18.206;2023-03-22T14:01:04;98769.42;;;14.70;54.14
34103;BME280;20381;54.498;18.206;2023-03-22T14:03:39;98757.84;;;14.67;54.64
34103;BME280;20381;54.498;18.206;2023-03-22T14:06:24;98762.41;;;14.59;55.41
34103;BME280;20381;54.498;18.206;2023-03-22T14:08:52;98758.22;;;14.45;55.28
34103;BME280;20381;54.498;18.206;2023-03-22T14:11:35;98762.74;;;14.49;55.06
34103;BME280;20381;54.498;18.206;2023-03-22T14:14:08;98758.80;;;14.49;55.22
34103;BME280;20381;54.498;18.206;2023-03-22T14:19:10;98759.75;;;14.31;55.50
34103;BME280;20381;54.498;18.206;2023-03-22T14:21:41;98765.85;;;14.09;55.79
34103;BME280;20381;54.498;18.206;2023-03-22T14:24:13;98755.79;;;13.97;56.09
34103;BME280;20381;54.498;18.206;2023-03-22T14:26:43;98757.80;;;13.82;56.35
34103;BME280;20381;54.498;18.206;2023-03-22T14:29:20;98759.59;;;13.82;57.29
34103;BME280;20381;54.498;18.206;2023-03-22T14:31:55;98749.69;;;13.80;56.39